Time;durP1;ratioP1;P1;durP2;ratioP2;P2;SDS_P1;SDS_P2;PMS_P1;PMS_P2;Temp;Humidity;BMP_temperature;BMP_pressure;BME280_temperature;BME280_humidity;BME280_pressure;Samples;Min_cycle;Max_cycle;Signal;HPM_P1;HPM_P2
2022/01/26 00:07:52;;;;;;;23.58;9.93;;;2.30;71.90;;;;;;5058558;28;20067;-70
2022/01/26 00:10:19;;;;;;;18.70;10.45;;;2.20;71.90;;;;;;5062523;28;20056;-70
2022/01/26 00:12:44;;;;;;;20.67;10.32;;;2.20;72.00;;;;;;5061510;28;20082;-70
2022/01/26 00:15:11;;;;;;;20.80;9.68;;;2.20;72.10;;;;;;5056939;28;20029;-70
2022/01/26 00:17:36;;;;;;;20.08;10.30;;;2.10;72.20;;;;;;5051290;28;20462;-71
2022/01/26 00:20:19;;;;;;;19.42;10.70;;;2.10;72.30;;;;;;5060368;28;20098;-70
2022/01/26 00:28:09;;;;;;;50.90;11.32;;;2.20;72.10;;;;;;5059745;28;20063;-70
2022/01/26 00:38:39;;;;;;;17.65;9.07;;;2.00;72.30;;;;;;5052565;28;20110;-70
2022/01/26 00:41:11;;;;;;;16.52;9.68;;;1.90;72.30;;;;;;5059209;28;20056;-70
2022/01/26 00:43:41;;;;;;;22.88;9.63;;;1.90;72.50;;;;;;5059241;28;20017;-70
2022/01/26 00:46:08;;;;;;;22.17;9.73;;;2.20;72.70;;;;;;5065625;28;20124;-70
2022/01/26 00:48:36;;;;;;;19.33;9.15;;;2.00;72.60;;;;;;5053596;28;20080;-70
2022/01/26 00:51:05;;;;;;;17.58;9.30;;;2.20;72.80;;;;;;5051820;28;20099;-70
2022/01/26 00:54:07;;;;;;;20.65;10.40;;;2.20;72.80;;;;;;5064389;28;20375;-70
2022/01/26 00:56:23;;;;;;;16.35;9.60;;;2.10;72.80;;;;;;5065743;28;20041;-70
2022/01/26 00:58:49;;;;;;;17.77;10.23;;;2.00;72.50;;;;;;5056947;28;20082;-70
2022/01/26 01:01:15;;;;;;;20.95;10.30;;;2.10;72.30;;;;;;5066786;28;20024;-70
2022/01/26 01:03:44;;;;;;;18.63;11.18;;;2.00;71.90;;;;;;5059908;28;20021;-70
2022/01/26 01:06:28;;;;;;;17.50;10.27;;;2.00;71.70;;;;;;5060472;28;20049;-70
2022/01/26 01:08:57;;;;;;;;;;;1.90;71.60;;;;;;5049380;28;20032;-70
2022/01/26 01:11:23;;;;;;;15.75;9.25;;;1.90;71.60;;;;;;5053710;28;19996;-70
2022/01/26 01:13:49;;;;;;;18.63;10.05;;;1.80;71.40;;;;;;5058995;28;20048;-71
2022/01/26 01:16:19;;;;;;;18.13;10.38;;;1.80;71.60;;;;;;5051622;28;20025;-70
2022/01/26 01:29:44;;;;;;;18.48;10.05;;;1.90;72.60;;;;;;5048337;28;20095;-70
2022/01/26 01:32:15;;;;;;;17.95;10.43;;;1.90;72.40;;;;;;5055978;28;20400;-70
2022/01/26 01:34:41;;;;;;;19.55;10.35;;;1.70;72.00;;;;;;5058340;28;20071;-70
2022/01/26 01:37:13;;;;;;;18.60;10.57;;;1.80;72.00;;;;;;5063881;28;20495;-70
2022/01/26 01:39:38;;;;;;;20.23;10.68;;;1.70;72.00;;;;;;5056182;28;20032;-70
2022/01/26 01:42:06;;;;;;;35.58;11.18;;;1.70;72.10;;;;;;5063241;28;20154;-70
2022/01/26 01:44:32;;;;;;;17.77;10.45;;;1.70;72.20;;;;;;5075320;28;20047;-70
2022/01/26 01:46:57;;;;;;;31.70;10.52;;;1.70;72.10;;;;;;5054491;28;20506;-71
2022/01/26 01:49:24;;;;;;;29.75;10.63;;;1.80;72.30;;;;;;5055935;28;20017;-70
2022/01/26 01:51:56;;;;;;;17.17;10.68;;;1.70;72.20;;;;;;5053486;28;20052;-70
2022/01/26 01:54:23;;;;;;;24.08;11.00;;;1.60;71.90;;;;;;5059685;28;20119;-71
2022/01/26 01:56:56;;;;;;;18.05;10.05;;;1.70;71.70;;;;;;5071531;28;20032;-70
2022/01/26 01:59:24;;;;;;;19.55;9.95;;;1.60;71.70;;;;;;5068710;28;20036;-70
2022/01/26 02:01:49;;;;;;;14.52;9.02;;;1.50;71.70;;;;;;5056975;28;20159;-70
2022/01/26 02:04:15;;;;;;;19.60;10.23;;;1.50;71.80;;;;;;5053534;28;20056;-70
2022/01/26 02:06:43;;;;;;;17.88;10.27;;;1.40;71.90;;;;;;5051771;28;20106;-71
2022/01/26 02:09:10;;;;;;;23.95;10.25;;;1.50;72.00;;;;;;5054983;28;20029;-70
2022/01/26 02:11:53;;;;;;;28.77;11.90;;;1.40;72.10;;;;;;5039658;28;20025;-70
2022/01/26 02:17:33;;;;;;;27.60;10.85;;;1.40;72.30;;;;;;5049698;28;20416;-70
2022/01/26 02:52:39;;;;;;;18.58;10.25;;;1.40;71.80;;;;;;5051973;28;20024;-71
2022/01/26 02:55:35;;;;;;;26.38;9.45;;;1.30;71.90;;;;;;5049601;28;20171;-70
2022/01/26 03:00:41;;;;;;;;;;;1.30;72.10;;;;;;5047885;28;20024;-71
2022/01/26 03:03:15;;;;;;;19.65;9.38;;;1.40;72.30;;;;;;5034679;28;19916;-70
2022/01/26 03:05:50;;;;;;;27.05;10.20;;;1.40;71.90;;;;;;5043310;28;20412;-71
2022/01/26 03:08:17;;;;;;;15.80;9.85;;;1.30;71.90;;;;;;5048367;28;20100;-71
2022/01/26 03:10:52;;;;;;;26.08;10.90;;;1.30;72.00;;;;;;5054972;28;20025;-71
2022/01/26 03:13:23;;;;;;;20.25;10.63;;;1.30;72.10;;;;;;5071962;28;20020;-70
2022/01/26 03:15:57;;;;;;;18.60;10.13;;;1.30;72.20;;;;;;5066828;28;20389;-70
2022/01/26 03:20:57;;;;;;;20.38;10.70;;;1.20;71.90;;;;;;5053720;28;20056;-70
2022/01/26 03:34:12;;;;;;;29.00;11.30;;;1.20;71.90;;;;;;5048317;28;20413;-71
2022/01/26 03:36:57;;;;;;;25.05;10.82;;;1.20;71.70;;;;;;5051605;28;20033;-71
2022/01/26 03:39:25;;;;;;;19.67;10.02;;;1.20;71.70;;;;;;5054180;28;20108;-71
2022/01/26 03:42:05;;;;;;;32.88;10.93;;;1.20;71.70;;;;;;5052980;28;20039;-71
2022/01/26 03:44:31;;;;;;;19.70;10.93;;;1.10;71.60;;;;;;5056830;28;20108;-71
2022/01/26 03:46:57;;;;;;;25.67;10.85;;;1.20;71.70;;;;;;5053515;28;20036;-71
2022/01/26 03:49:23;;;;;;;24.95;10.15;;;1.10;71.70;;;;;;5053301;28;20017;-71
2022/01/26 03:51:49;;;;;;;20.70;10.93;;;1.00;71.80;;;;;;5053386;28;20033;-71
2022/01/26 03:54:16;;;;;;;22.63;10.10;;;1.00;71.90;;;;;;5051847;28;20031;-71
2022/01/26 03:56:42;;;;;;;22.95;11.65;;;1.20;72.20;;;;;;5053170;28;20548;-71
2022/01/26 03:59:09;;;;;;;25.73;12.20;;;1.00;72.10;;;;;;5052842;28;20096;-71
2022/01/26 04:01:35;;;;;;;24.70;11.00;;;1.20;72.40;;;;;;5053298;28;20048;-71
2022/01/26 04:04:02;;;;;;;21.08;11.18;;;0.90;72.20;;;;;;5053014;28;20455;-72
2022/01/26 04:06:29;;;;;;;17.25;9.48;;;1.00;72.30;;;;;;5052382;28;20040;-71
2022/01/26 04:08:55;;;;;;;16.25;9.02;;;1.00;72.10;;;;;;5053238;28;20032;-71
2022/01/26 04:13:51;;;;;;;16.13;9.15;;;1.10;71.20;;;;;;5050230;28;20031;-71
2022/01/26 04:16:17;;;;;;;17.50;9.90;;;0.90;70.70;;;;;;5053052;28;20103;-71
2022/01/26 04:18:43;;;;;;;18.88;10.25;;;1.10;70.80;;;;;;5052875;28;20380;-71
2022/01/26 04:26:16;;;;;;;16.92;9.98;;;0.80;70.80;;;;;;5052847;28;20033;-71
2022/01/26 04:28:48;;;;;;;21.88;10.20;;;0.80;71.50;;;;;;5052598;28;20358;-71
2022/01/26 04:31:15;;;;;;;14.48;9.77;;;0.70;70.70;;;;;;5052800;28;20041;-71
2022/01/26 04:33:41;;;;;;;15.95;9.45;;;0.90;70.60;;;;;;5051398;28;20039;-72
2022/01/26 04:36:10;;;;;;;18.75;9.93;;;0.70;70.40;;;;;;5051595;28;20493;-71
2022/01/26 04:38:45;;;;;;;18.23;9.38;;;0.50;70.20;;;;;;5052701;28;20029;-71
2022/01/26 04:43:45;;;;;;;18.50;9.60;;;0.50;71.00;;;;;;5052737;28;20480;-71
2022/01/26 04:46:11;;;;;;;17.65;9.00;;;0.70;70.50;;;;;;5052543;28;20041;-71
2022/01/26 04:48:36;;;;;;;18.35;9.50;;;0.50;70.50;;;;;;5052602;28;20397;-71
2022/01/26 04:51:02;;;;;;;17.08;10.10;;;0.50;70.60;;;;;;5052446;28;20025;-71
2022/01/26 04:53:28;;;;;;;17.50;9.60;;;0.60;70.70;;;;;;5052602;28;20029;-71
2022/01/26 04:55:54;;;;;;;17.75;10.05;;;0.50;70.80;;;;;;5052577;28;20021;-71
2022/01/26 04:58:19;;;;;;;19.55;10.45;;;0.50;70.90;;;;;;5051378;28;20155;-71
2022/01/26 05:00:45;;;;;;;19.67;11.23;;;0.50;70.90;;;;;;5052575;28;20029;-71
2022/01/26 05:03:11;;;;;;;23.67;12.75;;;0.50;71.00;;;;;;5052237;28;20037;-71
2022/01/26 05:05:37;;;;;;;26.60;13.90;;;0.60;71.90;;;;;;5032609;28;20026;-71
2022/01/26 05:08:02;;;;;;;24.85;13.10;;;0.50;71.40;;;;;;5032493;28;20036;-71
2022/01/26 05:10:28;;;;;;;24.33;12.90;;;0.50;71.60;;;;;;5032522;28;20068;-71
2022/01/26 05:12:54;;;;;;;23.23;12.48;;;0.50;71.80;;;;;;5031363;28;20473;-71
2022/01/26 05:15:23;;;;;;;27.25;12.95;;;0.70;72.10;;;;;;5032329;28;20087;-71
2022/01/26 05:17:49;;;;;;;23.30;12.23;;;0.60;72.10;;;;;;5034537;28;20044;-71
2022/01/26 05:20:15;;;;;;;21.40;11.55;;;0.70;72.10;;;;;;5036456;28;20100;-71
2022/01/26 05:22:43;;;;;;;20.23;11.45;;;0.70;71.80;;;;;;5036214;28;20057;-71
2022/01/26 05:25:09;;;;;;;26.42;12.23;;;0.60;71.60;;;;;;5036305;28;20434;-71
2022/01/26 05:27:35;;;;;;;21.35;12.10;;;0.60;71.40;;;;;;5041011;28;20056;-71
2022/01/26 05:30:01;;;;;;;24.40;12.80;;;0.60;71.40;;;;;;5055878;28;20064;-71
2022/01/26 05:32:27;;;;;;;23.08;11.80;;;0.60;71.30;;;;;;5056121;28;20029;-71
2022/01/26 05:34:53;;;;;;;23.83;12.30;;;0.60;71.30;;;;;;5056093;28;20506;-71
2022/01/26 05:37:19;;;;;;;24.83;12.68;;;0.60;71.10;;;;;;5055982;28;20037;-72
2022/01/26 05:39:45;;;;;;;27.10;12.70;;;0.60;71.20;;;;;;5056004;28;20024;-71
2022/01/26 05:42:13;;;;;;;24.33;13.55;;;0.60;71.20;;;;;;5055923;28;20358;-71
2022/01/26 05:44:38;;;;;;;24.33;12.77;;;0.50;71.10;;;;;;5055831;28;20039;-72
2022/01/26 05:47:08;;;;;;;26.13;12.93;;;0.60;71.20;;;;;;5055755;28;20112;-71
2022/01/26 05:49:33;;;;;;;22.50;12.45;;;0.60;71.20;;;;;;5055691;28;20469;-71
2022/01/26 05:51:59;;;;;;;24.63;12.10;;;0.60;71.20;;;;;;5055745;28;20036;-74
2022/01/26 05:54:25;;;;;;;22.50;12.48;;;0.60;71.20;;;;;;5054266;28;20032;-71
2022/01/26 05:56:50;;;;;;;24.23;12.77;;;0.80;71.40;;;;;;5054428;28;20528;-71
2022/01/26 05:59:19;;;;;;;27.08;13.70;;;0.60;71.30;;;;;;5055701;28;20112;-72
2022/01/26 06:01:45;;;;;;;23.75;13.93;;;0.80;71.50;;;;;;5055454;28;20017;-71
2022/01/26 06:04:11;;;;;;;26.90;14.68;;;0.90;71.60;;;;;;5047070;28;20032;-71
2022/01/26 06:06:36;;;;;;;26.85;14.05;;;0.70;71.50;;;;;;5035754;28;20389;-71
2022/01/26 06:09:02;;;;;;;29.17;14.88;;;0.90;71.60;;;;;;5034181;28;20021;-72
2022/01/26 06:11:28;;;;;;;25.55;13.30;;;0.70;71.60;;;;;;5035537;28;20477;-71
2022/01/26 06:13:55;;;;;;;27.00;14.20;;;0.80;71.70;;;;;;5021127;28;20075;-71
2022/01/26 06:16:21;;;;;;;27.13;13.85;;;1.00;71.80;;;;;;5055105;28;20049;-72
2022/01/26 06:18:47;;;;;;;29.77;14.02;;;0.80;71.70;;;;;;5055519;28;20021;-71
2022/01/26 06:21:13;;;;;;;27.38;13.63;;;0.90;72.50;;;;;;5055182;28;20043;-72
2022/01/26 06:23:38;;;;;;;25.23;13.52;;;0.90;71.70;;;;;;5055079;28;20037;-72
2022/01/26 06:26:05;;;;;;;25.88;13.52;;;0.90;71.70;;;;;;5055332;28;20028;-72
2022/01/26 06:28:30;;;;;;;25.92;13.43;;;1.20;71.90;;;;;;5053946;28;20029;-72
2022/01/26 06:31:03;;;;;;;32.13;13.40;;;1.00;71.80;;;;;;5053528;28;20041;-71
2022/01/26 06:33:32;;;;;;;24.65;12.93;;;1.00;71.70;;;;;;5053729;28;20554;-72
2022/01/26 06:35:59;;;;;;;23.55;12.90;;;1.10;71.80;;;;;;5054793;28;20036;-71
2022/01/26 06:38:27;;;;;;;24.15;13.13;;;1.10;71.80;;;;;;5054797;28;20021;-72
2022/01/26 06:40:57;;;;;;;27.10;13.15;;;1.20;71.80;;;;;;5054899;28;20470;-72
2022/01/26 06:43:26;;;;;;;24.30;14.18;;;1.20;71.70;;;;;;5054646;28;20017;-72
2022/01/26 06:45:59;;;;;;;25.42;13.93;;;1.20;71.70;;;;;;5054467;28;20061;-72
2022/01/26 06:50:50;;;;;;;27.15;13.27;;;1.20;71.60;;;;;;5054495;28;20032;-72
2022/01/26 06:53:16;;;;;;;24.73;13.73;;;1.40;71.70;;;;;;5054469;28;20105;-72
2022/01/26 06:55:42;;;;;;;26.63;14.70;;;1.50;71.80;;;;;;5054614;28;20465;-72
2022/01/26 06:58:08;;;;;;;28.77;14.65;;;1.30;71.70;;;;;;5053236;28;20033;-72
2022/01/26 07:00:33;;;;;;;29.08;14.30;;;1.40;71.70;;;;;;5050783;28;20074;-72
2022/01/26 07:02:59;;;;;;;24.23;12.73;;;1.30;71.60;;;;;;5034273;28;20021;-72
2022/01/26 07:05:25;;;;;;;24.38;13.68;;;1.40;71.80;;;;;;5051528;28;20025;-72
2022/01/26 07:07:51;;;;;;;26.50;14.05;;;1.70;72.00;;;;;;5043207;28;20040;-72
2022/01/26 07:10:17;;;;;;;27.58;14.68;;;1.40;71.90;;;;;;5033048;28;20390;-72
2022/01/26 07:12:42;;;;;;;26.90;13.32;;;1.40;71.90;;;;;;5034210;28;20386;-72
2022/01/26 07:23:03;;;;;;;29.42;15.02;;;1.60;71.90;;;;;;5034205;28;20025;-72
2022/01/26 07:25:29;;;;;;;29.70;14.45;;;1.70;71.90;;;;;;5034172;28;20029;-72
2022/01/26 07:27:56;;;;;;;28.17;14.95;;;1.60;71.90;;;;;;5041266;28;20029;-72
2022/01/26 07:30:22;;;;;;;29.67;15.20;;;1.70;72.00;;;;;;5052257;28;20044;-72
2022/01/26 07:32:48;;;;;;;30.40;15.00;;;1.70;71.90;;;;;;5053775;28;20029;-72
2022/01/26 07:35:14;;;;;;;29.70;14.73;;;1.70;72.00;;;;;;5053579;28;20373;-72
2022/01/26 07:37:40;;;;;;;33.20;16.45;;;1.70;72.00;;;;;;5053738;28;20029;-72
2022/01/26 07:40:06;;;;;;;32.13;15.15;;;1.90;72.10;;;;;;5052481;28;20025;-72
2022/01/26 07:42:33;;;;;;;32.58;16.35;;;1.80;72.10;;;;;;5053574;28;20046;-72
2022/01/26 07:44:59;;;;;;;34.08;16.25;;;1.80;72.10;;;;;;5053684;28;20127;-72
2022/01/26 07:47:25;;;;;;;32.92;17.25;;;1.80;72.10;;;;;;5052191;28;20064;-72
2022/01/26 07:49:54;;;;;;;35.85;16.83;;;2.00;72.10;;;;;;5049928;28;20495;-71
2022/01/26 07:52:20;;;;;;;34.42;16.38;;;1.90;72.00;;;;;;5033425;28;20029;-72
2022/01/26 07:54:50;;;;;;;35.65;17.08;;;1.90;72.00;;;;;;5033590;28;20087;-72
2022/01/26 07:57:16;;;;;;;36.92;16.98;;;2.10;72.20;;;;;;5033292;28;20030;-72
2022/01/26 07:59:42;;;;;;;39.90;17.20;;;1.90;72.00;;;;;;5032081;28;20079;-72
2022/01/26 08:02:07;;;;;;;36.63;16.70;;;2.00;72.70;;;;;;5032023;28;20029;-72
2022/01/26 08:04:33;;;;;;;37.72;17.08;;;2.00;72.40;;;;;;5044409;28;20035;-72
2022/01/26 08:06:59;;;;;;;37.72;16.75;;;2.10;72.60;;;;;;5053127;28;20037;-71
2022/01/26 08:09:24;;;;;;;37.17;15.88;;;2.20;72.70;;;;;;5051871;28;20074;-71
2022/01/26 08:11:50;;;;;;;35.83;16.73;;;2.20;72.70;;;;;;5053135;28;20040;-71
2022/01/26 08:14:15;;;;;;;38.17;17.15;;;2.30;72.80;;;;;;5053035;28;20032;-71
2022/01/26 08:16:41;;;;;;;39.13;16.90;;;2.40;72.70;;;;;;5052978;28;20025;-71
2022/01/26 08:19:08;;;;;;;41.20;17.92;;;2.50;72.70;;;;;;5051678;28;20362;-71
2022/01/26 08:21:33;;;;;;;38.17;17.33;;;2.50;72.50;;;;;;5052871;28;20098;-71
2022/01/26 08:24:03;;;;;;;43.45;18.40;;;2.60;72.40;;;;;;5051624;28;20062;-71
2022/01/26 08:26:42;;;;;;;39.50;16.98;;;2.60;72.30;;;;;;5052902;28;20075;-71
2022/01/26 08:29:14;;;;;;;46.28;19.05;;;2.70;72.20;;;;;;5052571;28;20431;-72
2022/01/26 08:31:40;;;;;;;34.67;15.68;;;2.70;72.20;;;;;;5052794;28;20068;-71
2022/01/26 08:34:06;;;;;;;43.35;18.40;;;2.80;72.50;;;;;;5052779;28;20125;-71
2022/01/26 08:36:31;;;;;;;38.25;17.13;;;2.80;72.50;;;;;;5052744;28;20028;-71
2022/01/26 08:38:57;;;;;;;32.97;16.00;;;2.90;72.40;;;;;;5052758;28;20021;-71
2022/01/26 08:41:23;;;;;;;34.03;17.15;;;3.20;72.60;;;;;;5052725;28;20025;-71
2022/01/26 08:43:48;;;;;;;38.08;18.65;;;3.10;72.50;;;;;;5052680;28;20029;-71
2022/01/26 08:46:17;;;;;;;43.78;18.40;;;3.10;72.30;;;;;;5052533;28;20493;-71
2022/01/26 08:48:43;;;;;;;40.30;18.92;;;3.20;71.90;;;;;;5052663;28;20043;-71
2022/01/26 08:51:08;;;;;;;41.22;17.50;;;3.20;71.80;;;;;;5052855;28;20481;-71
2022/01/26 08:53:34;;;;;;;41.35;19.20;;;3.30;71.90;;;;;;5059019;28;20024;-71
2022/01/26 08:56:00;;;;;;;36.00;17.20;;;3.30;71.50;;;;;;5058178;28;20025;-71
2022/01/26 08:58:25;;;;;;;39.85;17.77;;;3.60;71.70;;;;;;5059241;28;20428;-71
2022/01/26 09:00:51;;;;;;;36.42;17.40;;;3.30;71.80;;;;;;5057842;28;20036;-70
2022/01/26 09:03:17;;;;;;;32.85;15.93;;;3.30;71.70;;;;;;5056890;28;20029;-70
2022/01/26 09:05:42;;;;;;;38.28;18.50;;;3.40;71.60;;;;;;5039039;28;20124;-70
2022/01/26 09:08:08;;;;;;;36.45;16.58;;;3.50;71.60;;;;;;5039268;28;20029;-71
2022/01/26 09:10:35;;;;;;;39.22;17.02;;;3.30;71.50;;;;;;5039104;28;20393;-70
2022/01/26 09:13:01;;;;;;;32.45;16.27;;;3.30;71.30;;;;;;5037849;28;20033;-70
2022/01/26 09:15:29;;;;;;;36.75;17.05;;;3.30;71.20;;;;;;5038015;28;20363;-70
2022/01/26 09:17:58;;;;;;;37.67;16.98;;;3.30;71.20;;;;;;5039003;28;20116;-70
2022/01/26 09:20:24;;;;;;;30.98;15.30;;;3.50;71.50;;;;;;5039119;28;20053;-71
2022/01/26 09:22:49;;;;;;;38.05;16.23;;;3.20;71.50;;;;;;5039289;28;20060;-71
2022/01/26 09:25:15;;;;;;;31.52;15.38;;;3.30;71.80;;;;;;5038921;28;20382;-70
2022/01/26 09:27:41;;;;;;;30.67;15.90;;;3.30;71.90;;;;;;5045839;28;20029;-70
2022/01/26 09:30:08;;;;;;;28.40;14.30;;;3.30;72.10;;;;;;5058599;28;20504;-70
2022/01/26 09:32:33;;;;;;;38.42;15.90;;;3.40;72.10;;;;;;5057570;28;20033;-70
2022/01/26 09:34:59;;;;;;;31.30;14.65;;;3.40;71.80;;;;;;5058941;28;20017;-70
2022/01/26 09:37:25;;;;;;;26.92;13.98;;;3.50;71.80;;;;;;5058773;28;20112;-70
2022/01/26 09:39:50;;;;;;;31.63;15.02;;;3.50;71.80;;;;;;5059053;28;20102;-70
2022/01/26 09:42:17;;;;;;;31.33;15.13;;;3.60;71.70;;;;;;5057624;28;20052;-70
2022/01/26 09:44:44;;;;;;;32.42;16.70;;;3.60;71.60;;;;;;5057788;28;20048;-70
2022/01/26 09:47:10;;;;;;;36.67;15.07;;;3.70;71.80;;;;;;5058851;28;20502;-70
2022/01/26 09:49:37;;;;;;;29.15;14.60;;;3.80;72.00;;;;;;5057436;28;20024;-69
2022/01/26 09:52:18;;;;;;;31.73;15.98;;;3.90;72.30;;;;;;5058682;28;20029;-69
2022/01/26 09:54:44;;;;;;;28.67;14.85;;;4.00;72.00;;;;;;5058702;28;20025;-68
2022/01/26 09:57:10;;;;;;;36.88;17.20;;;4.10;71.50;;;;;;5059005;28;20354;-69
2022/01/26 09:59:36;;;;;;;38.88;15.65;;;4.20;70.80;;;;;;5057392;28;20036;-69
2022/01/26 10:02:03;;;;;;;31.85;14.93;;;4.20;70.80;;;;;;5046256;28;20052;-69
2022/01/26 10:04:36;;;;;;;27.65;12.88;;;4.20;70.80;;;;;;5053501;28;20055;-69
2022/01/26 10:15:37;;;;;;;35.00;15.82;;;4.20;70.40;;;;;;5055583;28;20480;-68
2022/01/26 10:18:14;;;;;;;38.08;17.35;;;4.20;70.40;;;;;;5055191;28;20025;-69
2022/01/26 10:20:42;;;;;;;34.22;17.00;;;4.20;70.40;;;;;;5054033;28;20021;-68
2022/01/26 10:23:13;;;;;;;42.22;18.45;;;4.20;70.40;;;;;;5055239;28;20397;-69
2022/01/26 10:25:41;;;;;;;37.20;18.08;;;4.20;70.30;;;;;;5055069;28;20032;-69
2022/01/26 10:28:09;;;;;;;39.17;18.25;;;4.20;70.30;;;;;;5054738;28;20111;-69
2022/01/26 10:30:35;;;;;;;33.45;17.02;;;4.20;70.50;;;;;;5053618;28;20052;-68
2022/01/26 10:33:08;;;;;;;36.80;15.90;;;4.20;70.40;;;;;;5054904;28;20077;-68
2022/01/26 10:35:34;;;;;;;33.47;15.38;;;4.40;70.40;;;;;;5054903;28;20017;-68
2022/01/26 10:38:00;;;;;;;37.17;16.88;;;4.20;70.40;;;;;;5055023;28;20033;-69
2022/01/26 10:40:28;;;;;;;36.20;16.92;;;4.20;70.20;;;;;;5054794;28;20025;-69
2022/01/26 10:42:56;;;;;;;36.47;18.33;;;4.20;70.40;;;;;;5054688;28;20029;-68
2022/01/26 10:45:34;;;;;;;40.88;18.90;;;4.20;70.40;;;;;;5054834;28;20109;-69
2022/01/26 10:48:24;;;;;;;42.03;19.02;;;4.20;70.20;;;;;;5054751;28;20473;-69
2022/01/26 10:53:41;;;;;;;36.67;16.63;;;4.20;70.10;;;;;;5054934;28;20043;-69
2022/01/26 10:56:07;;;;;;;36.83;17.50;;;4.20;70.20;;;;;;5054496;28;20482;-69
2022/01/26 10:58:34;;;;;;;38.28;18.17;;;4.20;70.40;;;;;;5054503;28;20032;-69
2022/01/26 11:00:59;;;;;;;38.72;19.75;;;4.20;70.60;;;;;;5054472;28;20029;-68
2022/01/26 11:03:25;;;;;;;42.78;19.30;;;4.30;71.10;;;;;;5051002;28;20436;-69
2022/01/26 11:05:52;;;;;;;36.88;18.20;;;4.30;71.20;;;;;;5034383;28;20039;-69
2022/01/26 11:08:20;;;;;;;37.00;17.52;;;4.40;71.00;;;;;;5034528;28;20037;-69
2022/01/26 11:10:47;;;;;;;38.58;17.65;;;4.50;70.90;;;;;;5034326;28;20025;-69
2022/01/26 11:13:24;;;;;;;38.70;16.60;;;4.60;70.80;;;;;;5033086;28;20025;-69
2022/01/26 11:15:50;;;;;;;36.85;17.23;;;4.70;70.50;;;;;;5034071;28;20155;-69
2022/01/26 11:18:22;;;;;;;37.10;16.95;;;4.80;70.80;;;;;;5034002;28;20049;-69
2022/01/26 11:20:52;;;;;;;36.33;16.33;;;4.90;70.90;;;;;;5034096;28;20029;-69
2022/01/26 11:23:40;;;;;;;40.65;19.05;;;5.00;71.00;;;;;;5032921;28;20022;-69
2022/01/26 11:26:06;;;;;;;35.30;16.92;;;5.20;70.70;;;;;;5034103;28;20048;-69
2022/01/26 11:28:32;;;;;;;36.70;17.65;;;5.30;70.70;;;;;;5047683;28;20091;-69
2022/01/26 11:31:05;;;;;;;31.98;16.75;;;5.50;70.30;;;;;;5053733;28;20590;-69
2022/01/26 11:33:35;;;;;;;35.78;17.70;;;5.60;70.00;;;;;;5052945;28;20434;-69
2022/01/26 11:36:01;;;;;;;32.85;16.33;;;5.70;70.00;;;;;;5052462;28;20025;-69
2022/01/26 11:46:56;;;;;;;33.08;16.45;;;6.00;68.70;;;;;;5053602;28;20043;-69
2022/01/26 11:49:31;;;;;;;35.97;16.13;;;6.10;68.90;;;;;;5052301;28;20031;-70
2022/01/26 11:51:57;;;;;;;27.05;14.10;;;6.20;68.60;;;;;;5053549;28;20025;-69
2022/01/26 11:54:26;;;;;;;31.77;15.55;;;6.20;68.70;;;;;;5053322;28;20021;-70
2022/01/26 11:57:01;;;;;;;32.22;17.25;;;6.20;68.00;;;;;;5052235;28;20028;-69
2022/01/26 11:59:29;;;;;;;34.95;17.30;;;6.30;66.90;;;;;;5052176;28;20025;-70
2022/01/26 12:02:00;;;;;;;31.75;15.25;;;6.20;65.80;;;;;;5053148;28;20025;-70
2022/01/26 12:04:27;;;;;;;34.28;16.33;;;6.20;67.00;;;;;;5039929;28;20021;-70
2022/01/26 12:07:00;;;;;;;28.85;14.85;;;6.10;67.20;;;;;;5033592;28;20065;-70
2022/01/26 12:09:26;;;;;;;34.90;16.13;;;6.10;67.30;;;;;;5033195;28;20063;-69
2022/01/26 12:11:54;;;;;;;31.50;15.00;;;6.10;67.10;;;;;;5033164;28;20112;-69
2022/01/26 12:14:21;;;;;;;30.27;15.20;;;6.00;67.20;;;;;;5031994;28;20029;-69
2022/01/26 12:16:51;;;;;;;30.38;17.42;;;6.00;67.40;;;;;;5031898;28;20033;-69
2022/01/26 12:38:25;;;;;;;39.05;19.17;;;6.00;66.80;;;;;;5052970;28;20512;-69
2022/01/26 12:43:45;;;;;;;32.88;16.98;;;5.80;66.00;;;;;;5055424;28;20078;-69
2022/01/26 12:46:22;;;;;;;34.47;17.07;;;5.60;65.70;;;;;;5053725;28;20040;-68
2022/01/26 12:48:53;;;;;;;35.60;17.48;;;5.50;65.80;;;;;;5040903;28;20280;-69
2022/01/26 12:51:20;;;;;;;31.13;15.93;;;5.40;66.60;;;;;;5046085;28;20043;-68
2022/01/26 12:53:52;;;;;;;30.45;15.75;;;5.30;67.10;;;;;;5057739;28;20029;-69
2022/01/26 12:56:18;;;;;;;34.00;15.25;;;5.30;67.50;;;;;;5074689;28;20115;-69
2022/01/26 12:58:44;;;;;;;32.30;15.70;;;5.30;67.70;;;;;;5056248;28;20116;-69
2022/01/26 13:01:17;;;;;;;33.55;15.23;;;5.40;67.90;;;;;;5058602;28;20052;-68
2022/01/26 13:03:46;;;;;;;32.72;13.85;;;5.40;67.90;;;;;;5057536;28;20028;-68
2022/01/26 13:06:24;;;;;;;30.73;15.30;;;5.50;67.90;;;;;;5063839;28;20481;-68
2022/01/26 13:08:52;;;;;;;30.92;15.23;;;5.50;67.40;;;;;;5056153;28;20036;-68
2022/01/26 13:11:27;;;;;;;40.63;17.95;;;5.50;67.30;;;;;;5070016;28;20103;-68
2022/01/26 13:14:40;;;;;;;34.88;17.00;;;5.50;66.80;;;;;;5050720;28;20401;-68
2022/01/26 13:20:01;;;;;;;33.50;17.05;;;5.20;66.40;;;;;;5052193;28;20600;-68
2022/01/26 13:30:44;;;;;;;24.83;13.13;;;5.00;68.60;;;;;;5062339;28;20045;-68
2022/01/26 13:41:24;;;;;;;25.15;15.73;;;5.20;67.70;;;;;;5054919;28;20535;-67
2022/01/26 13:59:26;;;;;;;33.38;17.10;;;4.90;67.70;;;;;;5059412;28;20029;-69
2022/01/26 14:01:52;;;;;;;40.83;17.92;;;4.90;68.00;;;;;;5053612;28;20495;-69
2022/01/26 14:04:18;;;;;;;38.88;19.33;;;4.90;68.10;;;;;;5055287;28;20025;-69
2022/01/26 14:06:45;;;;;;;35.53;17.70;;;5.00;68.20;;;;;;5047208;28;20033;-70
2022/01/26 14:09:11;;;;;;;44.45;20.23;;;5.00;68.00;;;;;;5066053;28;20481;-69
2022/01/26 14:11:38;;;;;;;38.95;18.83;;;5.00;67.90;;;;;;5063388;28;20104;-69
2022/01/26 14:14:04;;;;;;;37.00;18.20;;;5.00;68.00;;;;;;5055337;28;20025;-69
2022/01/26 14:16:37;;;;;;;41.53;18.88;;;5.00;68.30;;;;;;5063996;28;20020;-69
2022/01/26 14:21:44;;;;;;;35.38;17.63;;;5.20;68.50;;;;;;5053189;28;20063;-69
2022/01/26 14:24:27;;;;;;;36.50;18.10;;;5.20;68.50;;;;;;5055234;28;20032;-69
2022/01/26 14:26:57;;;;;;;38.63;17.98;;;5.30;68.20;;;;;;5054010;28;20489;-70
2022/01/26 14:37:02;;;;;;;37.28;18.77;;;5.20;66.70;;;;;;5038086;28;20033;-70
2022/01/26 14:39:51;;;;;;;41.47;19.92;;;5.10;66.80;;;;;;5053920;28;20469;-69
2022/01/26 14:50:57;;;;;;;40.50;22.60;;;4.90;67.40;;;;;;5038989;28;20028;-69
2022/01/26 15:33:50;;;;;;;35.80;15.55;;;4.00;68.60;;;;;;5058998;28;20024;-69
2022/01/26 15:53:02;;;;;;;26.08;11.38;;;3.50;69.70;;;;;;5058192;28;20042;-69
2022/01/26 15:58:22;;;;;;;21.88;9.70;;;3.50;69.40;;;;;;5047549;28;20066;-69
2022/01/26 16:19:58;;;;;;;31.10;12.95;;;3.10;69.80;;;;;;5046284;28;21698;-70
2022/01/26 17:03:25;;;;;;;24.80;11.27;;;2.60;70.90;;;;;;5063860;28;20073;-71
2022/01/26 17:24:56;;;;;;;27.33;10.20;;;2.50;71.40;;;;;;5054995;28;20039;-71
2022/01/26 18:15:09;;;;;;;19.52;8.80;;;2.40;71.90;;;;;;5056213;28;20072;-71
2022/01/26 18:31:50;;;;;;;21.25;10.48;;;2.40;71.70;;;;;;5053379;28;20083;-71
2022/01/26 18:32:50;;;;;;;20.30;9.98;;;2.30;72.00;;;;;;5057769;28;20123;-71
2022/01/26 18:40:53;;;;;;;27.15;12.75;;;2.40;71.90;;;;;;5057050;28;20040;-71
2022/01/26 18:51:39;;;;;;;16.73;7.93;;;2.30;72.40;;;;;;5060472;28;20508;-71
2022/01/26 18:54:06;;;;;;;18.63;9.93;;;2.30;72.20;;;;;;5073080;28;20086;-71
2022/01/26 18:56:32;;;;;;;20.98;10.48;;;2.30;72.20;;;;;;5070588;28;20473;-71
2022/01/26 18:58:58;;;;;;;17.15;8.73;;;2.40;72.40;;;;;;5057546;28;20025;-71
2022/01/26 19:01:24;;;;;;;18.52;8.93;;;2.30;72.00;;;;;;5058805;28;20039;-72
2022/01/26 19:03:49;;;;;;;19.63;9.98;;;2.40;72.10;;;;;;5063108;28;20025;-71
2022/01/26 19:06:15;;;;;;;19.80;9.65;;;2.40;71.90;;;;;;5054080;28;20108;-71
2022/01/26 19:08:42;;;;;;;19.98;9.52;;;2.40;72.10;;;;;;5064643;28;20413;-71
2022/01/26 19:11:09;;;;;;;17.23;9.10;;;2.40;72.30;;;;;;5056522;28;20021;-71
2022/01/26 19:13:35;;;;;;;16.98;8.80;;;2.40;72.20;;;;;;5055708;28;20021;-71
2022/01/26 19:16:08;;;;;;;20.23;9.65;;;2.40;72.10;;;;;;5052590;28;20036;-71
2022/01/26 19:21:45;;;;;;;21.42;10.40;;;2.60;72.20;;;;;;5049362;28;20358;-71
2022/01/26 19:26:45;;;;;;;16.90;9.18;;;2.50;72.10;;;;;;5050268;28;20111;-71
2022/01/26 19:29:27;;;;;;;18.83;9.80;;;2.50;72.10;;;;;;5063843;28;20457;-71
2022/01/26 19:46:00;;;;;;;17.65;8.77;;;2.40;71.30;;;;;;5063389;28;20319;-72
2022/01/26 19:51:11;;;;;;;;;;;2.30;71.20;;;;;;5037467;28;20508;-71
2022/01/26 19:53:37;;;;;;;21.52;9.65;;;2.30;71.70;;;;;;5053613;28;19909;-71
2022/01/26 19:56:03;;;;;;;18.70;9.00;;;2.30;71.50;;;;;;5064901;28;20021;-72
2022/01/26 19:58:29;;;;;;;21.15;9.75;;;2.20;71.70;;;;;;5053381;28;20113;-72